Huvudsida
METAR-TAF:

METAR-TAF

Flygplatser :

Alghero-Fertilia flygplats

Alghero, Italien

latitud: 40-38N, longitud: 008-17E, höjd: 23 m

Aktuellt väderrapport

Denna rapport gjordes för 33 minuter sedan, klockan 21:20 UTC
Vind 2 kt varierande vindriktning
Temperatur 11°C
Fuktighet 87%
Tryck 1024 hPa
Sikt 10 km eller mer
Inga moln under 1 500 m eller inga cumulonimbus

METAR: LIEA 082120Z VRB02KT CAVOK 11/09 Q1024

Tid: 23:53 (21:53 UTC)

Väderprognos

Denna rapport gjordes för 4 timmar och 53 minuter sedan, klockan 17:00 UTC
Prognos gäller från 08 kl. 18 UTC till 09 kl. 18 UTC
Vind 6 kt varierande vindriktning
Sikt 10 km eller mer
Spridda moln på en höjd av 3000 ft

TAF: LIEA 081700Z 0818/0918 VRB06KT 9999 SCT030

Aktuella väderrapporter och prognoser från 4000 flygplatser (METAR- och TAF-rapporter).

De tillgängliga stationerna syns som gula och röda prickar på kartan.

För musen över prickarna för att se namnen på stationerna.

Klicka sedan för att få väderrapporter och prognoser.

För att ändra kartan: Klicka på de gröna knapparna med ett svart kors på för att zooma in; den gröna knappen med ett streck på för att zooma ut; eller på de gröna pilarna för angränsande kartor.


METAR-TAF: